Time;durP1;ratioP1;P1;durP2;ratioP2;P2;SDS_P1;SDS_P2;PMS_P1;PMS_P2;Temp;Humidity;BMP_temperature;BMP_pressure;BME280_temperature;BME280_humidity;BME280_pressure;Samples;Min_cycle;Max_cycle;Signal;HPM_P1;HPM_P2
2021/09/28 00:01:59;;;;;;;;;;;18.30;99.90;;;;;;5092387;28;19984;-70
2021/09/28 00:04:26;;;;;;;;;;;18.40;99.90;;;;;;5093082;28;19912;-70
2021/09/28 00:06:52;;;;;;;;;;;18.50;99.90;;;;;;5092652;28;19908;-70
2021/09/28 00:09:19;;;;;;;;;;;18.50;99.90;;;;;;5092520;28;20014;-70
2021/09/28 00:11:50;;;;;;;;;;;18.50;99.90;;;;;;5092681;28;20358;-70
2021/09/28 00:14:17;;;;;;;;;;;18.50;99.90;;;;;;5092613;28;19908;-70
2021/09/28 00:16:44;;;;;;;;;;;18.60;99.90;;;;;;5092615;28;19914;-70
2021/09/28 00:19:10;;;;;;;;;;;18.70;99.90;;;;;;5091960;28;19912;-70
2021/09/28 00:21:37;;;;;;;;;;;18.60;99.90;;;;;;5092493;28;19937;-69
2021/09/28 00:24:05;;;;;;;;;;;18.50;99.90;;;;;;5092898;28;19914;-69
2021/09/28 00:26:31;;;;;;;;;;;18.50;99.90;;;;;;5092539;28;19915;-69
2021/09/28 00:28:58;;;;;;;;;;;18.50;99.90;;;;;;5092575;28;20312;-69
2021/09/28 00:31:24;;;;;;;;;;;18.50;99.90;;;;;;5092743;28;19920;-72
2021/09/28 00:33:51;;;;;;;;;;;18.60;99.90;;;;;;5091925;28;19923;-71
2021/09/28 00:36:22;;;;;;;;;;;18.70;99.90;;;;;;5091951;28;19950;-70
2021/09/28 00:38:50;;;;;;;;;;;18.80;99.90;;;;;;5092232;28;19908;-72
2021/09/28 00:41:16;;;;;;;;;;;18.90;99.90;;;;;;5092150;28;19916;-72
2021/09/28 00:43:54;;;;;;;;;;;19.10;99.90;;;;;;5092020;28;19908;-71
2021/09/28 00:46:21;;;;;;;;;;;19.00;99.90;;;;;;5091978;28;20026;-72
2021/09/28 00:48:48;;;;;;;;;;;19.10;99.90;;;;;;5095333;28;20378;-70
2021/09/28 00:51:15;;;;;;;;;;;19.10;99.90;;;;;;5096146;28;19987;-69
2021/09/28 00:53:43;;;;;;;;;;;19.30;99.90;;;;;;5096184;28;19912;-71
2021/09/28 00:56:11;;;;;;;;;;;19.70;99.90;;;;;;5096179;28;20363;-69
2021/09/28 00:58:39;;;;;;;;;;;20.00;99.60;;;;;;5096134;28;20283;-69
2021/09/28 01:01:06;;;;;;;;;;;20.30;99.10;;;;;;5096356;28;19908;-72
2021/09/28 01:03:33;;;;;;;;;;;20.40;98.80;;;;;;5094481;28;19931;-72
2021/09/28 01:05:59;;;;;;;;;;;20.60;98.30;;;;;;5095991;28;20390;-71
2021/09/28 01:08:26;;;;;;;;;;;21.00;98.30;;;;;;5095878;28;19908;-71
2021/09/28 01:10:53;;;;;;;;;;;21.00;97.90;;;;;;5095792;28;20327;-70
2021/09/28 01:13:20;;;;;;;;;;;21.20;97.70;;;;;;5095895;28;20096;-71
2021/09/28 01:16:07;;;;;;;;;;;21.40;97.20;;;;;;5095499;28;19953;-71
2021/09/28 01:18:35;;;;;;;;;;;21.30;97.30;;;;;;5094957;28;19908;-71
2021/09/28 01:21:02;;;;;;;;;;;21.80;96.90;;;;;;5095190;28;19908;-69
2021/09/28 01:23:29;;;;;;;;;;;21.80;96.50;;;;;;5096202;28;19915;-70
2021/09/28 01:25:56;;;;;;;;;;;21.80;96.30;;;;;;5095675;28;20315;-72
2021/09/28 01:28:22;;;;;;;;;;;21.70;96.70;;;;;;5080137;28;19908;-72
2021/09/28 01:30:49;;;;;;;;;;;21.30;96.90;;;;;;5076700;28;20300;-71
2021/09/28 01:33:16;;;;;;;;;;;21.00;97.70;;;;;;5077151;28;19944;-70
2021/09/28 01:35:43;;;;;;;;;;;20.70;98.00;;;;;;5082924;28;19948;-71
2021/09/28 01:38:10;;;;;;;;;;;20.50;98.70;;;;;;5077533;28;20000;-71
2021/09/28 01:40:36;;;;;;;;;;;20.20;98.50;;;;;;5075877;28;20359;-71
2021/09/28 01:43:10;;;;;;;;;;;20.10;99.10;;;;;;5075756;28;20335;-69
2021/09/28 01:45:37;;;;;;;;;;;19.90;99.30;;;;;;5073780;28;20248;-70
2021/09/28 01:48:03;;;;;;;;;;;19.90;99.50;;;;;;5075411;28;19916;-72
2021/09/28 01:50:33;;;;;;;;;;;20.00;99.40;;;;;;5074836;28;19920;-71
2021/09/28 01:53:00;;;;;;;;;;;20.10;99.30;;;;;;5074985;28;20272;-71
2021/09/28 01:55:27;;;;;;;;;;;20.10;99.50;;;;;;5074320;28;20351;-69
2021/09/28 01:57:56;;;;;;;;;;;20.10;99.50;;;;;;5074148;28;20287;-71
2021/09/28 02:00:23;;;;;;;;;;;20.20;99.30;;;;;;5074904;28;19908;-71
2021/09/28 02:02:50;;;;;;;;;;;20.20;99.30;;;;;;5075145;28;19953;-69
2021/09/28 02:05:17;;;;;;;;;;;20.20;99.30;;;;;;5074465;28;19915;-71
2021/09/28 02:07:44;;;;;;;;;;;20.10;99.30;;;;;;5074208;28;20418;-70
2021/09/28 02:10:11;;;;;;;;;;;19.70;99.40;;;;;;5074287;28;20004;-71
2021/09/28 02:12:38;;;;;;;;;;;19.40;99.90;;;;;;5074462;28;19916;-71
2021/09/28 02:15:05;;;;;;;;;;;19.40;99.90;;;;;;5074502;28;19916;-71
2021/09/28 02:17:32;;;;;;;;;;;19.40;99.90;;;;;;5073721;28;20396;-69
2021/09/28 02:19:59;;;;;;;;;;;19.60;99.90;;;;;;5074013;28;19947;-70
2021/09/28 02:22:25;;;;;;;;;;;19.90;99.90;;;;;;5074300;28;19908;-70
2021/09/28 02:24:52;;;;;;;;;;;20.00;99.80;;;;;;5074264;28;19909;-70
2021/09/28 02:27:19;;;;;;;;;;;20.00;99.80;;;;;;5074018;28;19956;-70
2021/09/28 02:29:46;;;;;;;;;;;20.00;99.90;;;;;;5073698;28;19909;-71
2021/09/28 02:32:12;;;;;;;;;;;19.70;99.90;;;;;;5074092;28;20371;-72
2021/09/28 02:34:39;;;;;;;;;;;19.70;99.90;;;;;;5073993;28;19909;-71
2021/09/28 02:37:08;;;;;;;;;;;19.70;99.90;;;;;;5073398;28;19916;-70
2021/09/28 02:39:40;;;;;;;;;;;19.60;99.90;;;;;;5073308;28;20268;-71
2021/09/28 02:42:07;;;;;;;;;;;19.70;99.90;;;;;;5074135;28;19959;-70
2021/09/28 02:44:34;;;;;;;;;;;19.60;99.90;;;;;;5073847;28;20329;-71
2021/09/28 02:47:00;;;;;;;;;;;19.60;99.90;;;;;;5073799;28;19916;-71
2021/09/28 02:49:27;;;;;;;;;;;19.70;99.90;;;;;;5073183;28;20248;-71
2021/09/28 02:51:54;;;;;;;;;;;19.90;99.90;;;;;;5073126;28;20412;-71
2021/09/28 02:54:20;;;;;;;;;;;19.90;99.90;;;;;;5073430;28;19919;-71
2021/09/28 02:56:47;;;;;;;;;;;19.90;99.90;;;;;;5073348;28;19909;-71
2021/09/28 02:59:14;;;;;;;;;;;19.90;99.90;;;;;;5073385;28;19999;-70
2021/09/28 03:01:40;;;;;;;;;;;19.90;99.90;;;;;;5073252;28;20177;-71
2021/09/28 03:04:07;;;;;;;;;;;19.80;99.90;;;;;;5089024;28;19919;-70
2021/09/28 03:06:34;;;;;;;;;;;19.70;99.90;;;;;;5073469;28;19908;-69
2021/09/28 03:09:00;;;;;;;;;;;19.80;99.90;;;;;;5072839;28;19958;-69
2021/09/28 03:11:27;;;;;;;;;;;19.70;99.90;;;;;;5072404;28;19938;-70
2021/09/28 03:13:54;;;;;;;;;;;19.70;99.90;;;;;;5072928;28;20362;-71
2021/09/28 03:16:22;;;;;;;;;;;19.80;99.90;;;;;;5072735;28;19951;-71
2021/09/28 03:18:48;;;;;;;;;;;19.90;99.80;;;;;;5105497;28;20325;-71
2021/09/28 03:21:15;;;;;;;;;;;19.80;99.90;;;;;;5072671;28;20326;-71
2021/09/28 03:23:42;;;;;;;;;;;19.80;99.80;;;;;;5072753;28;19908;-70
2021/09/28 03:26:08;;;;;;;;;;;19.90;99.90;;;;;;5105621;28;19913;-72
2021/09/28 03:28:35;;;;;;;;;;;19.90;99.90;;;;;;5073411;28;20003;-71
2021/09/28 03:31:02;;;;;;;;;;;19.90;99.90;;;;;;5072533;28;20310;-72
2021/09/28 03:33:29;;;;;;;;;;;19.70;99.90;;;;;;5089657;28;20358;-72
2021/09/28 03:35:57;;;;;;;;;;;19.60;99.90;;;;;;5092848;28;20349;-70
2021/09/28 03:38:23;;;;;;;;;;;19.60;99.90;;;;;;5092673;28;20321;-71
2021/09/28 03:40:50;;;;;;;;;;;19.90;99.90;;;;;;5093135;28;20433;-71
2021/09/28 03:43:17;;;;;;;;;;;20.00;99.40;;;;;;5092833;28;19947;-71
2021/09/28 03:45:43;;;;;;;;;;;20.10;99.70;;;;;;5092273;28;20634;-71
2021/09/28 03:48:10;;;;;;;;;;;20.00;99.60;;;;;;5093004;28;19916;-71
2021/09/28 03:50:37;;;;;;;;;;;19.90;99.90;;;;;;5091841;28;19927;-71
2021/09/28 03:53:04;;;;;;;;;;;19.90;99.90;;;;;;5092538;28;19954;-69
2021/09/28 03:55:31;;;;;;;;;;;19.70;99.90;;;;;;5092275;28;19912;-69
2021/09/28 03:58:00;;;;;;;;;;;19.60;99.90;;;;;;5091432;28;19954;-71
2021/09/28 04:00:26;;;;;;;;;;;19.60;99.90;;;;;;5092327;28;19912;-70
2021/09/28 04:02:53;;;;;;;;;;;19.60;99.90;;;;;;5092472;28;20397;-71
2021/09/28 04:05:20;;;;;;;;;;;19.50;99.90;;;;;;5092316;28;20392;-71
2021/09/28 04:07:46;;;;;;;;;;;19.40;99.90;;;;;;5092297;28;19908;-70
2021/09/28 04:10:13;;;;;;;;;;;19.40;99.90;;;;;;5092328;28;19915;-70
2021/09/28 04:12:40;;;;;;;;;;;19.30;99.90;;;;;;5092092;28;20275;-70
2021/09/28 04:15:07;;;;;;;;;;;19.20;99.90;;;;;;5092344;28;19923;-69
2021/09/28 04:17:34;;;;;;;;;;;19.20;99.90;;;;;;5091856;28;19951;-69
2021/09/28 04:20:01;;;;;;;;;;;19.20;99.90;;;;;;5091803;28;19912;-70
2021/09/28 04:22:27;;;;;;;;;;;19.30;99.90;;;;;;5090894;28;19908;-70
2021/09/28 04:24:55;;;;;;;;;;;19.30;99.90;;;;;;5092173;28;19959;-70
2021/09/28 04:27:21;;;;;;;;;;;19.20;99.90;;;;;;5091938;28;20011;-70
2021/09/28 04:29:48;;;;;;;;;;;19.10;99.90;;;;;;5091982;28;19962;-70
2021/09/28 04:32:15;;;;;;;;;;;19.00;99.90;;;;;;5092299;28;19923;-70
2021/09/28 04:34:41;;;;;;;;;;;19.00;99.90;;;;;;5092282;28;19938;-70
2021/09/28 04:37:08;;;;;;;;;;;18.90;99.90;;;;;;5092295;28;20023;-71
2021/09/28 04:39:34;;;;;;;;;;;18.80;99.90;;;;;;5092056;28;19912;-69
2021/09/28 04:42:01;;;;;;;;;;;18.90;99.90;;;;;;5092659;28;19951;-70
2021/09/28 04:44:28;;;;;;;;;;;18.90;99.90;;;;;;5092524;28;19908;-71
2021/09/28 04:46:54;;;;;;;;;;;18.80;99.90;;;;;;5092190;28;20321;-69
2021/09/28 04:49:21;;;;;;;;;;;18.70;99.90;;;;;;5091992;28;20393;-70
2021/09/28 04:51:48;;;;;;;;;;;18.60;99.90;;;;;;5092002;28;20285;-71
2021/09/28 04:54:14;;;;;;;;;;;18.60;99.90;;;;;;5092341;28;19912;-71
2021/09/28 04:56:41;;;;;;;;;;;18.60;99.90;;;;;;5092139;28;20286;-71
2021/09/28 04:59:08;;;;;;;;;;;18.50;99.90;;;;;;5092122;28;19908;-71
2021/09/28 05:01:34;;;;;;;;;;;18.60;99.90;;;;;;5092082;28;19908;-71
2021/09/28 05:04:01;;;;;;;;;;;18.60;99.90;;;;;;5092543;28;19912;-71
2021/09/28 05:06:29;;;;;;;;;;;18.50;99.90;;;;;;5092126;28;20335;-71
2021/09/28 05:08:56;;;;;;;;;;;18.50;99.90;;;;;;5092062;28;20006;-71
2021/09/28 05:11:22;;;;;;;;;;;18.50;99.90;;;;;;5091793;28;19922;-71
2021/09/28 05:13:49;;;;;;;;;;;18.50;99.90;;;;;;5091566;28;20387;-71
2021/09/28 05:16:17;;;;;;;;;;;18.60;99.90;;;;;;5091951;28;20349;-69
2021/09/28 05:18:44;;;;;;;;;;;18.60;99.90;;;;;;5091965;28;19912;-71
2021/09/28 05:21:11;;;;;;;;;;;18.60;99.90;;;;;;5091846;28;20318;-71
2021/09/28 05:23:37;;;;;;;;;;;18.60;99.90;;;;;;5091324;28;19997;-70
2021/09/28 05:26:04;;;;;;;;;;;18.70;99.90;;;;;;5091696;28;19908;-69
2021/09/28 05:28:31;;;;;;;;;;;18.60;99.90;;;;;;5091875;28;19946;-69
2021/09/28 05:30:58;;;;;;;;;;;18.60;99.90;;;;;;5091714;28;20037;-68
2021/09/28 05:33:24;;;;;;;;;;;18.60;99.90;;;;;;5092642;28;19982;-70
2021/09/28 05:35:52;;;;;;;;;;;18.80;99.90;;;;;;5094813;28;20682;-68
2021/09/28 05:38:19;;;;;;;;;;;18.90;99.90;;;;;;5095203;28;19968;-70
2021/09/28 05:40:45;;;;;;;;;;;19.00;99.90;;;;;;5095162;28;19998;-71
2021/09/28 05:43:12;;;;;;;;;;;19.10;99.90;;;;;;5095358;28;19951;-70
2021/09/28 05:45:39;;;;;;;;;;;19.00;99.90;;;;;;5094914;28;19919;-70
2021/09/28 05:48:05;;;;;;;;;;;18.90;99.90;;;;;;5095353;28;19981;-70
2021/09/28 05:50:34;;;;;;;;;;;19.00;99.90;;;;;;5094304;28;19920;-71
2021/09/28 05:53:06;;;;;;;;;;;18.90;99.90;;;;;;5095222;28;19918;-70
2021/09/28 05:55:33;;;;;;;;;;;18.90;99.90;;;;;;5094674;28;19919;-70
2021/09/28 05:58:00;;;;;;;;;;;19.00;99.90;;;;;;5095188;28;19912;-71
2021/09/28 06:00:27;;;;;;;;;;;19.00;99.90;;;;;;5095014;28;20367;-70
2021/09/28 06:02:54;;;;;;;;;;;19.00;99.90;;;;;;5094553;28;19998;-71
2021/09/28 06:05:23;;;;;;;;;;;18.80;99.90;;;;;;5094431;28;19912;-69
2021/09/28 06:07:50;;;;;;;;;;;18.60;99.90;;;;;;5094629;28;20261;-71
2021/09/28 06:10:17;;;;;;;;;;;18.50;99.90;;;;;;5094437;28;19912;-71
2021/09/28 06:12:44;;;;;;;;;;;18.50;99.90;;;;;;5094722;28;19920;-69
2021/09/28 06:15:11;;;;;;;;;;;18.40;99.90;;;;;;5094699;28;20404;-72
2021/09/28 06:17:37;;;;;;;;;;;18.40;99.90;;;;;;5094344;28;19970;-69
2021/09/28 06:20:05;;;;;;;;;;;18.30;99.90;;;;;;5094433;28;19915;-69
2021/09/28 06:22:31;;;;;;;;;;;18.30;99.90;;;;;;5094722;28;19919;-69
2021/09/28 06:24:58;;;;;;;;;;;18.30;99.90;;;;;;5094664;28;20355;-70
2021/09/28 06:27:25;;;;;;;;;;;18.30;99.90;;;;;;5094524;28;19915;-69
2021/09/28 06:29:52;;;;;;;;;;;18.30;99.90;;;;;;5094275;28;19920;-70
2021/09/28 06:32:19;;;;;;;;;;;18.40;99.90;;;;;;5094879;28;20423;-72
2021/09/28 06:34:46;;;;;;;;;;;18.40;99.90;;;;;;5094439;28;19915;-70
2021/09/28 06:37:12;;;;;;;;;;;18.40;99.90;;;;;;5093987;28;19916;-70
2021/09/28 06:39:39;;;;;;;;;;;18.40;99.90;;;;;;5093757;28;20006;-70
2021/09/28 06:42:06;;;;;;;;;;;18.40;99.90;;;;;;5094379;28;19912;-71
2021/09/28 06:44:32;;;;;;;;;;;18.30;99.90;;;;;;5094069;28;20002;-70
2021/09/28 06:46:59;;;;;;;;;;;18.30;99.90;;;;;;5094055;28;19912;-70
2021/09/28 06:49:26;;;;;;;;;;;18.30;99.90;;;;;;5093623;28;19908;-71
2021/09/28 06:51:52;;;;;;;;;;;18.20;99.90;;;;;;5091759;28;20384;-72
2021/09/28 06:54:19;;;;;;;;;;;18.20;99.90;;;;;;5092246;28;19908;-70
2021/09/28 06:56:46;;;;;;;;;;;18.10;99.90;;;;;;5090594;28;19946;-72
2021/09/28 06:59:12;;;;;;;;;;;18.00;99.90;;;;;;5092173;28;19912;-71
2021/09/28 07:01:39;;;;;;;;;;;18.00;99.90;;;;;;5091736;28;20328;-72
2021/09/28 07:04:06;;;;;;;;;;;18.00;99.90;;;;;;5092014;28;20371;-71
2021/09/28 07:06:33;;;;;;;;;;;18.00;99.90;;;;;;5091737;28;19912;-72
2021/09/28 07:09:00;;;;;;;;;;;17.90;99.90;;;;;;5091670;28;19912;-71
2021/09/28 07:11:27;;;;;;;;;;;17.80;99.90;;;;;;5091442;28;19959;-72
2021/09/28 07:13:54;;;;;;;;;;;17.80;99.90;;;;;;5091289;28;20002;-72
2021/09/28 07:16:21;;;;;;;;;;;17.80;99.90;;;;;;5091441;28;19918;-71
2021/09/28 07:18:48;;;;;;;;;;;17.70;99.90;;;;;;5089703;28;20375;-72
2021/09/28 07:21:15;;;;;;;;;;;17.70;99.90;;;;;;5091042;28;19908;-72
2021/09/28 07:23:41;;;;;;;;;;;17.70;99.90;;;;;;5090978;28;20003;-71
2021/09/28 07:26:10;;;;;;;;;;;17.70;99.90;;;;;;5089683;28;20002;-70
2021/09/28 07:28:36;;;;;;;;;;;17.70;99.90;;;;;;5091224;28;20332;-71
2021/09/28 07:31:04;;;;;;;;;;;17.70;99.90;;;;;;5090707;28;20406;-71
2021/09/28 07:33:31;;;;;;;;;;;17.70;99.90;;;;;;5091085;28;19916;-71
2021/09/28 07:35:57;;;;;;;;;;;17.60;99.90;;;;;;5090916;28;19935;-71
2021/09/28 07:38:24;;;;;;;;;;;17.60;99.90;;;;;;5090962;28;19908;-70
2021/09/28 07:40:51;;;;;;;;;;;17.60;99.90;;;;;;5090943;28;19916;-69
2021/09/28 07:43:19;;;;;;;;;;;17.60;99.90;;;;;;5090701;28;19908;-70
2021/09/28 07:45:45;;;;;;;;;;;17.50;99.90;;;;;;5090092;28;19989;-71
2021/09/28 07:48:12;;;;;;;;;;;17.50;99.90;;;;;;5090935;28;19908;-71
2021/09/28 07:50:39;;;;;;;;;;;17.50;99.90;;;;;;5089854;28;19924;-70
2021/09/28 07:53:07;;;;;;;;;;;17.50;99.90;;;;;;5090736;28;19916;-71
2021/09/28 07:55:35;;;;;;;;;;;17.50;99.90;;;;;;5089906;28;19912;-71
2021/09/28 07:58:05;;;;;;;;;;;17.40;99.90;;;;;;5089500;28;20145;-71
2021/09/28 08:00:31;;;;;;;;;;;17.40;99.90;;;;;;5091084;28;19912;-70
2021/09/28 08:02:58;;;;;;;;;;;17.40;99.90;;;;;;5093299;28;19912;-72
2021/09/28 08:05:25;;;;;;;;;;;17.40;99.90;;;;;;5090872;28;19912;-71
2021/09/28 08:07:52;;;;;;;;;;;17.30;99.90;;;;;;5090440;28;19912;-72
2021/09/28 08:10:18;;;;;;;;;;;17.30;99.90;;;;;;5090211;28;19912;-71
2021/09/28 08:12:46;;;;;;;;;;;17.30;99.90;;;;;;5089011;28;20248;-72
2021/09/28 08:15:13;;;;;;;;;;;17.30;99.90;;;;;;5089282;28;20412;-71
2021/09/28 08:17:39;;;;;;;;;;;17.30;99.90;;;;;;5090356;28;19911;-72
2021/09/28 08:20:08;;;;;;;;;;;17.30;99.90;;;;;;5089925;28;19916;-72
2021/09/28 08:22:38;;;;;;;;;;;17.20;99.90;;;;;;5089719;28;19912;-72
2021/09/28 08:25:10;;;;;;;;;;;17.20;99.90;;;;;;5090430;28;20328;-72
2021/09/28 08:30:21;;;;;;;;;;;17.20;99.90;;;;;;5090484;28;19920;-73
2021/09/28 08:32:49;;;;;;;;;;;17.20;99.90;;;;;;5089995;28;20355;-72
2021/09/28 08:35:16;;;;;;;;;;;17.20;99.90;;;;;;5089875;28;20607;-72
2021/09/28 08:37:43;;;;;;;;;;;17.20;99.90;;;;;;5089762;28;19995;-72
2021/09/28 08:40:12;;;;;;;;;;;17.10;99.90;;;;;;5090178;28;20609;-71
2021/09/28 08:42:39;;;;;;;;;;;17.10;99.90;;;;;;5090222;28;20277;-71
2021/09/28 08:45:06;;;;;;;;;;;17.10;99.90;;;;;;5090390;28;19935;-72
2021/09/28 08:47:34;;;;;;;;;;;17.10;99.90;;;;;;5089760;28;19908;-71
2021/09/28 08:50:01;;;;;;;;;;;17.10;99.90;;;;;;5089277;28;20010;-71
2021/09/28 08:52:28;;;;;;;;;;;17.10;99.90;;;;;;5090240;28;20404;-72
2021/09/28 08:54:56;;;;;;;;;;;17.10;99.90;;;;;;5090118;28;20696;-72
2021/09/28 08:57:23;;;;;;;;;;;17.10;99.90;;;;;;5089905;28;19920;-72
2021/09/28 08:59:50;;;;;;;;;;;17.10;99.90;;;;;;5089810;28;19912;-71
2021/09/28 09:02:16;;;;;;;;;;;17.10;99.90;;;;;;5089465;28;19908;-73
2021/09/28 09:04:46;;;;;;;;;;;17.10;99.90;;;;;;5089915;28;19988;-72
2021/09/28 09:07:22;;;;;;;;;;;17.10;99.90;;;;;;5091608;28;19976;-72
2021/09/28 09:09:49;;;;;;;;;;;17.10;99.90;;;;;;5095297;28;19909;-72
2021/09/28 09:12:29;;;;;;;;;;;17.00;99.90;;;;;;5095856;28;20377;-72
2021/09/28 09:15:14;;;;;;;;;;;17.10;99.90;;;;;;5095701;28;20284;-71
2021/09/28 09:17:41;;;;;;;;;;;17.10;99.90;;;;;;5092945;28;20320;-71
2021/09/28 09:20:23;;;;;;;;;;;17.10;99.90;;;;;;5095216;28;19978;-71
2021/09/28 09:22:50;;;;;;;;;;;17.10;99.90;;;;;;5095464;28;19908;-72
2021/09/28 09:25:20;;;;;;;;;;;17.00;99.90;;;;;;5095046;28;19935;-71
2021/09/28 09:27:47;;;;;;;;;;;17.10;99.90;;;;;;5095551;28;19915;-71
2021/09/28 09:30:20;;;;;;;;;;;17.00;99.90;;;;;;5095506;28;19991;-70
2021/09/28 09:32:47;;;;;;;;;;;17.10;99.90;;;;;;5126993;27;19920;-70
2021/09/28 09:35:27;;;;;;;;;;;17.00;99.90;;;;;;5095376;28;19959;-70
2021/09/28 09:38:29;;;;;;;;;;;17.00;99.90;;;;;;5097135;28;19933;-70
2021/09/28 09:40:56;;;;;;;;;;;17.00;99.90;;;;;;5072662;28;20276;-71
2021/09/28 09:43:30;;;;;;;;;;;17.00;99.90;;;;;;5090553;28;19908;-72
2021/09/28 09:46:22;;;;;;;;;;;17.00;99.90;;;;;;5095036;28;19916;-71
2021/09/28 09:48:49;;;;;;;;;;;17.10;99.90;;;;;;5093811;28;19912;-72
2021/09/28 09:51:18;;;;;;;;;;;17.00;99.90;;;;;;5094773;28;20379;-72
2021/09/28 09:53:50;;;;;;;;;;;17.10;99.90;;;;;;5095158;28;20355;-72
2021/09/28 09:56:18;;;;;;;;;;;17.10;99.90;;;;;;5094963;28;20007;-71
2021/09/28 09:58:45;;;;;;;;;;;17.10;99.90;;;;;;5095092;28;20355;-71
2021/09/28 10:01:11;;;;;;;;;;;17.10;99.90;;;;;;5094982;28;20467;-72
2021/09/28 10:03:39;;;;;;;;;;;17.10;99.90;;;;;;5094953;28;19908;-70
2021/09/28 10:06:06;;;;;;;;;;;17.10;99.90;;;;;;5094922;28;19985;-69
2021/09/28 10:08:33;;;;;;;;;;;17.10;99.90;;;;;;5095107;28;20351;-69
2021/09/28 10:11:00;;;;;;;;;;;17.10;99.90;;;;;;5094536;28;19924;-69
2021/09/28 10:13:46;;;;;;;;;;;17.10;99.90;;;;;;5094943;28;19954;-71
2021/09/28 10:16:31;;;;;;;;;;;17.10;99.90;;;;;;5094716;28;19935;-71
2021/09/28 10:18:58;;;;;;;;;;;17.10;99.90;;;;;;5094124;28;19908;-70
2021/09/28 10:21:34;;;;;;;;;;;17.00;99.90;;;;;;5094375;28;20000;-70
2021/09/28 10:24:35;;;;;;;;;;;17.00;99.90;;;;;;5094771;28;19908;-70
2021/09/28 10:27:02;;;;;;;;;;;17.10;99.90;;;;;;5072518;28;20285;-70
2021/09/28 10:29:38;;;;;;;;;;;17.10;99.90;;;;;;5090271;28;19915;-72
2021/09/28 10:32:23;;;;;;;;;;;17.00;99.90;;;;;;5094585;28;19916;-69
2021/09/28 10:35:07;;;;;;;;;;;17.00;99.90;;;;;;5095286;28;19943;-71
2021/09/28 10:37:43;;;;;;;;;;;17.00;99.90;;;;;;5094773;28;20282;-71
2021/09/28 10:40:10;;;;;;;;;;;17.00;99.90;;;;;;5094728;28;20007;-72
2021/09/28 10:42:48;;;;;;;;;;;17.00;99.90;;;;;;5087293;28;19909;-71
2021/09/28 10:45:19;;;;;;;;;;;17.00;99.90;;;;;;5074422;28;19948;-69
2021/09/28 10:47:47;;;;;;;;;;;17.10;99.90;;;;;;5073718;28;20181;-71
2021/09/28 10:50:14;;;;;;;;;;;17.10;99.90;;;;;;5073809;28;19920;-72
2021/09/28 10:52:41;;;;;;;;;;;17.10;99.90;;;;;;5074747;28;19964;-71
2021/09/28 10:55:11;;;;;;;;;;;17.10;99.90;;;;;;5073877;28;20359;-71
2021/09/28 10:58:01;;;;;;;;;;;17.10;99.90;;;;;;5073865;28;20363;-72
2021/09/28 11:00:30;;;;;;;;;;;17.10;99.90;;;;;;5074310;28;20259;-70
2021/09/28 11:02:58;;;;;;;;;;;17.10;99.90;;;;;;5074156;28;19922;-71
2021/09/28 11:05:30;;;;;;;;;;;17.10;99.90;;;;;;5074149;28;20351;-70
2021/09/28 11:07:57;;;;;;;;;;;17.10;99.90;;;;;;5073694;28;19908;-71
2021/09/28 11:10:24;;;;;;;;;;;17.10;99.90;;;;;;5076383;28;19909;-70
2021/09/28 11:12:51;;;;;;;;;;;17.10;99.90;;;;;;5080019;28;19920;-70
2021/09/28 11:15:18;;;;;;;;;;;17.10;99.90;;;;;;5077277;28;19908;-71
2021/09/28 11:17:45;;;;;;;;;;;17.10;99.90;;;;;;5073509;28;20279;-71
2021/09/28 11:20:26;;;;;;;;;;;17.00;99.90;;;;;;5073720;28;20157;-71
2021/09/28 11:22:56;;;;;;;;;;;17.00;99.90;;;;;;5073051;28;19909;-71
2021/09/28 11:25:23;;;;;;;;;;;17.00;99.90;;;;;;5073467;28;19919;-72
2021/09/28 11:28:09;;;;;;;;;;;17.00;99.90;;;;;;5073149;28;20392;-71
2021/09/28 11:30:37;;;;;;;;;;;17.00;99.90;;;;;;5072601;28;19991;-69
2021/09/28 11:33:04;;;;;;;;;;;17.00;99.90;;;;;;5073087;28;20062;-70
2021/09/28 11:35:32;;;;;;;;;;;17.00;99.90;;;;;;5072879;28;19919;-69
2021/09/28 11:38:02;;;;;;;;;;;17.00;99.90;;;;;;5072919;28;20005;-71
2021/09/28 11:40:29;;;;;;;;;;;17.00;99.90;;;;;;5073291;28;19909;-69
2021/09/28 11:42:56;;;;;;;;;;;17.00;99.90;;;;;;5073576;28;19978;-71
2021/09/28 11:45:29;;;;;;;;;;;16.90;99.90;;;;;;5073207;28;19908;-70
2021/09/28 11:48:03;;;;;;;;;;;16.90;99.90;;;;;;5101649;28;19912;-69
2021/09/28 11:50:30;;;;;;;;;;;16.90;99.90;;;;;;5070837;28;19952;-71
2021/09/28 11:52:56;;;;;;;;;;;16.90;99.90;;;;;;5070463;28;19917;-72
2021/09/28 11:55:24;;;;;;;;;;;16.90;99.90;;;;;;5070926;28;19999;-71
2021/09/28 11:57:51;;;;;;;;;;;16.90;99.90;;;;;;5070703;28;20339;-71
2021/09/28 12:00:18;;;;;;;;;;;16.90;99.90;;;;;;5070323;28;20359;-71
2021/09/28 12:02:45;;;;;;;;;;;16.90;99.90;;;;;;5070608;28;20390;-71
2021/09/28 12:05:44;;;;;;;;;;;16.80;99.90;;;;;;5070444;28;20338;-72
2021/09/28 12:08:00;;;;;;;;;;;16.80;99.90;;;;;;5069804;28;19908;-72
2021/09/28 12:10:34;;;;;;;;;;;16.80;99.90;;;;;;5070633;28;19908;-70
2021/09/28 12:13:13;;;;;;;;;;;16.80;99.90;;;;;;5070188;28;20011;-70
2021/09/28 12:16:00;;;;;;;;;;;16.80;99.90;;;;;;5070245;28;20346;-71
2021/09/28 12:18:27;;;;;;;;;;;16.80;99.90;;;;;;5070626;28;19908;-71
2021/09/28 12:21:07;;;;;;;;;;;16.80;99.90;;;;;;5070280;28;19955;-70
2021/09/28 12:23:34;;;;;;;;;;;16.70;99.90;;;;;;5069804;28;19909;-69
2021/09/28 12:26:00;;;;;;;;;;;16.70;99.90;;;;;;5070165;28;19974;-69
2021/09/28 12:28:30;;;;;;;;;;;16.70;99.90;;;;;;5070480;28;20389;-70
2021/09/28 12:31:07;;;;;;;;;;;16.60;99.90;;;;;;5070246;28;19955;-72
2021/09/28 12:33:35;;;;;;;;;;;16.60;99.90;;;;;;5069987;28;20278;-71
2021/09/28 12:36:02;;;;;;;;;;;16.70;99.90;;;;;;5070153;28;19916;-69
2021/09/28 12:38:28;;;;;;;;;;;16.60;99.90;;;;;;5069384;28;19961;-69
2021/09/28 12:41:08;;;;;;;;;;;16.70;99.90;;;;;;5070048;28;19946;-69
2021/09/28 12:43:35;;;;;;;;;;;16.60;99.90;;;;;;5070106;28;19914;-70
2021/09/28 12:46:05;;;;;;;;;;;16.60;99.90;;;;;;5070517;28;19915;-69
2021/09/28 12:48:40;;;;;;;;;;;16.60;99.90;;;;;;5071537;28;19974;-71
2021/09/28 12:51:10;;;;;;;;;;;16.60;99.90;;;;;;5070442;28;19931;-70
2021/09/28 12:53:37;;;;;;;;;;;16.70;99.90;;;;;;5069459;28;19990;-70
2021/09/28 12:56:04;;;;;;;;;;;16.70;99.90;;;;;;5070004;28;20003;-72
2021/09/28 12:58:33;;;;;;;;;;;16.70;99.90;;;;;;5070255;28;19908;-69
2021/09/28 13:01:00;;;;;;;;;;;16.70;99.90;;;;;;5070174;28;19967;-71
2021/09/28 13:03:29;;;;;;;;;;;16.70;99.90;;;;;;5069888;28;19956;-71
2021/09/28 13:06:00;;;;;;;;;;;16.70;99.90;;;;;;5069550;28;19962;-71
2021/09/28 13:08:27;;;;;;;;;;;16.70;99.90;;;;;;5070068;28;19961;-71
2021/09/28 13:10:56;;;;;;;;;;;16.60;99.90;;;;;;5070000;28;19916;-69
2021/09/28 13:13:23;;;;;;;;;;;16.60;99.90;;;;;;5069916;28;19916;-70
2021/09/28 13:15:50;;;;;;;;;;;16.60;99.90;;;;;;5069686;28;20248;-72
2021/09/28 13:18:18;;;;;;;;;;;16.60;99.90;;;;;;5069733;28;20370;-72
2021/09/28 13:20:44;;;;;;;;;;;16.50;99.90;;;;;;5069701;28;19908;-71
2021/09/28 13:23:11;;;;;;;;;;;16.50;99.90;;;;;;5068499;28;19935;-71
2021/09/28 13:25:38;;;;;;;;;;;16.50;99.90;;;;;;5069761;28;20267;-69
2021/09/28 13:28:07;;;;;;;;;;;16.50;99.90;;;;;;5069910;28;19909;-70
2021/09/28 13:30:35;;;;;;;;;;;16.40;99.90;;;;;;5069399;28;19909;-69
2021/09/28 13:33:02;;;;;;;;;;;16.30;99.90;;;;;;5069553;28;19924;-69
2021/09/28 13:35:33;;;;;;;;;;;16.30;99.90;;;;;;5069607;28;20367;-70
2021/09/28 13:38:00;;;;;;;;;;;16.20;99.90;;;;;;5101956;27;20003;-69
2021/09/28 13:40:27;;;;;;;;;;;16.10;99.90;;;;;;5069643;28;20319;-69
2021/09/28 13:42:54;;;;;;;;;;;16.10;99.90;;;;;;5069731;28;19915;-69
2021/09/28 13:45:21;;;;;;;;;;;16.00;99.90;;;;;;5067875;28;19913;-70
2021/09/28 13:47:48;;;;;;;;;;;16.00;99.90;;;;;;5069527;28;19913;-69
2021/09/28 13:50:14;;;;;;;;;;;15.90;99.90;;;;;;5069514;28;19952;-70
2021/09/28 13:52:41;;;;;;;;;;;15.90;99.90;;;;;;5069586;28;19942;-71
2021/09/28 13:55:08;;;;;;;;;;;15.80;99.90;;;;;;5071665;28;19993;-71
2021/09/28 13:57:36;;;;;;;;;;;15.90;99.90;;;;;;5072575;28;20047;-70
2021/09/28 14:00:07;;;;;;;;;;;15.90;99.90;;;;;;5073152;28;20360;-71
2021/09/28 14:02:34;;;;;;;;;;;15.90;99.90;;;;;;5073079;28;20394;-71
2021/09/28 14:05:00;;;;;;;;;;;16.00;99.90;;;;;;5072767;28;19916;-70
2021/09/28 14:07:27;;;;;;;;;;;16.00;99.90;;;;;;5073055;28;19908;-69
2021/09/28 14:09:54;;;;;;;;;;;15.90;99.90;;;;;;5072395;28;19912;-70
2021/09/28 14:12:20;;;;;;;;;;;15.80;99.90;;;;;;5072975;28;19943;-70
2021/09/28 14:14:47;;;;;;;;;;;15.70;99.90;;;;;;5072936;28;19915;-72
2021/09/28 14:17:14;;;;;;;;;;;15.60;99.90;;;;;;5072938;28;19966;-70
2021/09/28 14:19:40;;;;;;;;;;;15.50;99.90;;;;;;5072542;28;19913;-71
2021/09/28 14:22:07;;;;;;;;;;;15.50;99.90;;;;;;5072691;28;19999;-69
2021/09/28 14:24:34;;;;;;;;;;;15.40;99.90;;;;;;5073243;28;19909;-70
2021/09/28 14:27:00;;;;;;;;;;;15.40;99.90;;;;;;5075462;28;19922;-69